Time;durP1;ratioP1;P1;durP2;ratioP2;P2;SDS_P1;SDS_P2;PMS_P1;PMS_P2;Temp;Humidity;BMP_temperature;BMP_pressure;BME280_temperature;BME280_humidity;BME280_pressure;Samples;Min_cycle;Max_cycle;Signal;HPM_P1;HPM_P2
2022/02/22 00:00:39;;;;;;;316.43;299.13;;;5.60;99.90;;;;;;4362981;32;20205;-66
2022/02/22 00:03:06;;;;;;;318.00;301.53;;;5.60;99.90;;;;;;4352091;32;20216;-66
2022/02/22 00:05:33;;;;;;;293.73;277.63;;;5.60;99.90;;;;;;4362615;32;20569;-66
2022/02/22 00:08:00;;;;;;;294.03;278.63;;;5.60;99.90;;;;;;4362364;32;20203;-66
2022/02/22 00:10:26;;;;;;;317.87;301.63;;;5.50;99.90;;;;;;4362492;33;20215;-67
2022/02/22 00:12:53;;;;;;;284.77;270.73;;;5.40;99.90;;;;;;4352700;32;20590;-66
2022/02/22 00:15:22;;;;;;;296.30;281.07;;;5.40;99.90;;;;;;4347501;33;20181;-68
2022/02/22 00:17:48;;;;;;;290.83;275.70;;;5.40;99.90;;;;;;4347786;33;20205;-66
2022/02/22 00:20:17;;;;;;;292.37;277.53;;;5.40;99.90;;;;;;4359594;33;20216;-65
2022/02/22 00:22:44;;;;;;;289.60;274.97;;;5.40;99.90;;;;;;4359720;32;20182;-65
2022/02/22 00:25:13;;;;;;;305.40;289.73;;;5.30;99.90;;;;;;4362673;32;20561;-66
2022/02/22 00:27:41;;;;;;;291.30;277.27;;;5.20;99.90;;;;;;4362159;33;20232;-65
2022/02/22 00:30:09;;;;;;;295.33;279.57;;;5.20;99.90;;;;;;4361416;33;20208;-66
2022/02/22 00:32:39;;;;;;;292.10;277.70;;;5.10;99.90;;;;;;4355974;33;20224;-66
2022/02/22 00:35:08;;;;;;;290.33;274.70;;;5.10;99.90;;;;;;4347668;33;20509;-65
2022/02/22 00:37:35;;;;;;;287.13;272.77;;;5.20;99.90;;;;;;4347125;33;20201;-68
2022/02/22 00:40:02;;;;;;;295.23;280.43;;;5.20;99.90;;;;;;4350547;33;20520;-65
2022/02/22 00:42:28;;;;;;;297.83;283.27;;;5.10;99.90;;;;;;4359721;33;20168;-68
2022/02/22 00:44:55;;;;;;;298.83;284.30;;;5.10;99.90;;;;;;4362008;33;20467;-66
2022/02/22 00:47:25;;;;;;;287.87;273.37;;;5.10;99.90;;;;;;4361930;33;20149;-68
2022/02/22 00:49:53;;;;;;;306.47;289.57;;;5.20;99.90;;;;;;4362111;32;20179;-66
2022/02/22 00:52:22;;;;;;;301.23;284.80;;;5.20;99.90;;;;;;4361289;32;20646;-66
2022/02/22 00:54:49;;;;;;;301.93;286.20;;;5.20;99.90;;;;;;4347353;32;20255;-64
2022/02/22 00:57:16;;;;;;;301.10;286.13;;;5.20;99.90;;;;;;4348103;33;20138;-66
2022/02/22 00:59:45;;;;;;;300.77;286.03;;;5.20;99.90;;;;;;4346804;33;20192;-66
2022/02/22 01:02:12;;;;;;;302.40;286.63;;;5.20;99.90;;;;;;4353727;33;20192;-68
2022/02/22 01:04:39;;;;;;;308.33;292.10;;;5.10;99.90;;;;;;4359521;32;20179;-66
2022/02/22 01:07:07;;;;;;;291.03;276.83;;;5.10;99.90;;;;;;4361782;32;20179;-65
2022/02/22 01:09:40;;;;;;;317.97;301.60;;;5.10;99.90;;;;;;4351528;32;20203;-65
2022/02/22 01:12:09;;;;;;;295.80;281.07;;;5.00;99.90;;;;;;4344496;32;20216;-65
2022/02/22 01:14:38;;;;;;;322.77;306.57;;;5.00;99.90;;;;;;4348893;33;20153;-65
2022/02/22 01:17:09;;;;;;;314.90;297.30;;;5.00;99.90;;;;;;4345105;33;20234;-65
2022/02/22 01:19:40;;;;;;;307.00;290.60;;;4.90;99.90;;;;;;4344558;33;20216;-66
2022/02/22 01:22:12;;;;;;;277.97;263.07;;;4.80;99.90;;;;;;4342898;33;20176;-65
2022/02/22 01:24:40;;;;;;;307.20;291.60;;;4.80;99.90;;;;;;4352373;33;20188;-65
2022/02/22 01:27:09;;;;;;;293.30;278.20;;;4.80;99.90;;;;;;4352934;33;20513;-65
2022/02/22 01:29:36;;;;;;;293.67;278.77;;;4.80;99.90;;;;;;4346564;33;20587;-65
2022/02/22 01:32:05;;;;;;;314.47;299.37;;;4.70;99.90;;;;;;4346821;33;20580;-65
2022/02/22 01:34:31;;;;;;;290.60;275.57;;;4.70;99.90;;;;;;4352972;33;20213;-65
2022/02/22 01:36:58;;;;;;;301.83;286.20;;;4.70;99.90;;;;;;4361047;33;20152;-66
2022/02/22 01:39:26;;;;;;;279.30;263.87;;;4.70;99.90;;;;;;4361395;32;20471;-65
2022/02/22 01:41:53;;;;;;;303.37;287.60;;;4.70;99.90;;;;;;4360977;33;20163;-66
2022/02/22 01:44:23;;;;;;;306.50;290.63;;;4.60;99.90;;;;;;4355704;33;20153;-65
2022/02/22 01:47:01;;;;;;;307.50;291.30;;;4.60;99.90;;;;;;4346207;33;20150;-65
2022/02/22 01:49:28;;;;;;;310.93;294.43;;;4.60;99.90;;;;;;4347158;33;20179;-65
2022/02/22 01:52:02;;;;;;;291.87;276.57;;;4.60;99.90;;;;;;4346264;33;20169;-65
2022/02/22 01:54:30;;;;;;;290.43;275.00;;;4.60;99.90;;;;;;4349668;32;20507;-65
2022/02/22 01:56:57;;;;;;;284.33;269.13;;;4.60;99.90;;;;;;4360655;33;20201;-65
2022/02/22 01:59:24;;;;;;;302.07;286.73;;;4.50;99.90;;;;;;4360472;33;20160;-65
2022/02/22 02:01:51;;;;;;;303.87;288.03;;;4.50;99.90;;;;;;4361238;32;20543;-66
2022/02/22 02:04:18;;;;;;;293.30;278.07;;;4.50;99.90;;;;;;4359086;33;20149;-65
2022/02/22 02:06:46;;;;;;;290.63;275.03;;;4.50;99.90;;;;;;4346125;33;20578;-65
2022/02/22 02:09:13;;;;;;;288.43;273.23;;;4.40;99.90;;;;;;4358492;32;20591;-65
2022/02/22 02:11:46;;;;;;;282.10;267.83;;;4.50;99.90;;;;;;4360785;33;20199;-65
2022/02/22 02:14:13;;;;;;;282.07;267.13;;;4.40;99.90;;;;;;4356056;33;20215;-64
2022/02/22 02:16:40;;;;;;;295.03;279.83;;;4.40;99.90;;;;;;4347737;32;20205;-66
2022/02/22 02:19:08;;;;;;;294.17;279.27;;;4.40;99.90;;;;;;4352416;33;20220;-65
2022/02/22 02:21:39;;;;;;;280.90;266.73;;;4.50;99.90;;;;;;4360383;32;20523;-65
2022/02/22 02:24:12;;;;;;;286.33;271.67;;;4.40;99.90;;;;;;4360484;33;20180;-65
2022/02/22 02:26:39;;;;;;;272.80;258.10;;;4.40;99.90;;;;;;4347428;33;20153;-65
2022/02/22 02:29:09;;;;;;;271.70;258.33;;;4.40;99.90;;;;;;4348643;33;20172;-63
2022/02/22 02:31:36;;;;;;;291.13;276.37;;;4.30;99.90;;;;;;4359961;32;20214;-63
2022/02/22 02:34:05;;;;;;;291.03;276.40;;;4.40;99.90;;;;;;4360403;33;20630;-63
2022/02/22 02:36:33;;;;;;;299.50;284.73;;;4.40;99.90;;;;;;4350096;32;20240;-64
2022/02/22 02:39:03;;;;;;;304.23;289.67;;;4.40;99.90;;;;;;4345775;33;20140;-63
2022/02/22 02:41:31;;;;;;;292.37;277.03;;;4.30;99.90;;;;;;4358343;33;20191;-64
2022/02/22 02:44:01;;;;;;;296.93;282.30;;;4.30;99.90;;;;;;4360358;33;20472;-64
2022/02/22 02:46:28;;;;;;;298.57;283.30;;;4.40;99.90;;;;;;4351150;33;20157;-64
2022/02/22 02:48:55;;;;;;;305.30;290.27;;;4.40;99.90;;;;;;4345790;33;20178;-65
2022/02/22 02:51:23;;;;;;;319.20;302.50;;;4.40;99.90;;;;;;4354394;33;20237;-65
2022/02/22 02:53:54;;;;;;;291.27;274.97;;;4.40;99.90;;;;;;4361541;33;20148;-65
2022/02/22 02:56:22;;;;;;;297.80;281.23;;;4.40;99.90;;;;;;4353692;33;20210;-65
2022/02/22 02:58:52;;;;;;;286.70;270.93;;;4.40;99.90;;;;;;4347049;33;20204;-65
2022/02/22 03:01:20;;;;;;;293.30;279.00;;;4.40;99.90;;;;;;4349483;33;20161;-65
2022/02/22 03:03:47;;;;;;;287.37;272.27;;;4.40;99.90;;;;;;4360743;33;20204;-65
2022/02/22 03:06:14;;;;;;;302.30;287.27;;;4.40;99.90;;;;;;4358516;33;20511;-65
2022/02/22 03:08:41;;;;;;;280.93;266.53;;;4.50;99.90;;;;;;4359997;33;20171;-65
2022/02/22 03:11:09;;;;;;;288.70;274.40;;;4.40;99.90;;;;;;4360403;33;20209;-65
2022/02/22 03:13:36;;;;;;;283.27;269.60;;;4.40;99.90;;;;;;4360280;33;20141;-65
2022/02/22 03:16:05;;;;;;;295.87;280.70;;;4.50;99.90;;;;;;4359204;33;20213;-64
2022/02/22 03:18:33;;;;;;;292.87;277.77;;;4.50;99.90;;;;;;4346327;33;20199;-65
2022/02/22 03:21:00;;;;;;;300.47;286.03;;;4.60;99.90;;;;;;4349270;33;20170;-65
2022/02/22 03:23:27;;;;;;;299.90;284.40;;;4.60;99.90;;;;;;4360354;33;20165;-65
2022/02/22 03:25:54;;;;;;;298.37;283.30;;;4.60;99.90;;;;;;4360561;33;20145;-65
2022/02/22 03:28:21;;;;;;;294.43;280.23;;;4.60;99.90;;;;;;4347206;33;20468;-63
2022/02/22 03:30:49;;;;;;;287.20;273.40;;;4.60;99.90;;;;;;4354086;33;20557;-65
2022/02/22 03:33:17;;;;;;;306.93;291.67;;;4.60;99.90;;;;;;4348418;33;20199;-65
2022/02/22 03:35:45;;;;;;;296.87;281.63;;;4.60;99.90;;;;;;4344633;33;20161;-65
2022/02/22 03:38:11;;;;;;;293.50;278.33;;;4.60;99.90;;;;;;4355116;33;20224;-65
2022/02/22 03:40:39;;;;;;;304.73;289.77;;;4.60;99.90;;;;;;4361870;33;20197;-65
2022/02/22 03:43:06;;;;;;;308.40;292.70;;;4.60;99.90;;;;;;4360008;33;20451;-65
2022/02/22 03:45:34;;;;;;;315.50;300.23;;;4.60;99.90;;;;;;4360437;33;20212;-65
2022/02/22 03:48:01;;;;;;;310.50;295.07;;;4.60;99.90;;;;;;4349716;33;20161;-65
2022/02/22 03:50:30;;;;;;;315.13;299.27;;;4.50;99.90;;;;;;4358009;33;20153;-65
2022/02/22 03:52:58;;;;;;;296.10;281.63;;;4.50;99.90;;;;;;4360109;33;20572;-65
2022/02/22 03:55:25;;;;;;;299.30;284.07;;;4.50;99.90;;;;;;4360270;33;20492;-65
2022/02/22 03:57:52;;;;;;;311.87;296.63;;;4.50;99.90;;;;;;4359213;32;20622;-65
2022/02/22 04:00:24;;;;;;;297.47;282.67;;;4.50;99.90;;;;;;4362663;32;20553;-65
2022/02/22 04:02:52;;;;;;;304.50;289.53;;;4.50;99.90;;;;;;4362682;33;20227;-65
2022/02/22 04:05:21;;;;;;;290.57;275.73;;;4.40;99.90;;;;;;4362725;32;20145;-65
2022/02/22 04:07:52;;;;;;;300.40;284.70;;;4.40;99.90;;;;;;4360082;33;20175;-65
2022/02/22 04:10:20;;;;;;;281.27;267.00;;;4.40;99.90;;;;;;4362492;33;20149;-65
2022/02/22 04:12:49;;;;;;;267.60;254.77;;;4.40;99.90;;;;;;4362809;32;20165;-65
2022/02/22 04:15:17;;;;;;;281.90;267.67;;;4.40;99.90;;;;;;4363163;32;20157;-65
2022/02/22 04:17:44;;;;;;;296.30;281.67;;;4.40;99.90;;;;;;4360064;33;20168;-62
2022/02/22 04:20:12;;;;;;;289.83;274.90;;;4.40;99.90;;;;;;4362393;33;20180;-65
2022/02/22 04:22:39;;;;;;;288.00;274.03;;;4.30;99.90;;;;;;4362424;32;20196;-65
2022/02/22 04:25:08;;;;;;;288.17;273.47;;;4.20;99.90;;;;;;4362779;32;20179;-65
2022/02/22 04:27:37;;;;;;;279.33;264.27;;;4.20;99.90;;;;;;4361524;33;20541;-65
2022/02/22 04:30:05;;;;;;;284.13;270.43;;;4.20;99.90;;;;;;4362748;32;20161;-65
2022/02/22 04:32:32;;;;;;;281.77;268.27;;;4.20;99.90;;;;;;4358614;32;20160;-65
2022/02/22 04:34:58;;;;;;;285.47;271.97;;;4.10;99.90;;;;;;4347355;33;20538;-64
2022/02/22 04:37:25;;;;;;;293.80;279.13;;;4.10;99.90;;;;;;4347266;33;20200;-65
2022/02/22 04:39:54;;;;;;;285.87;271.80;;;4.00;99.90;;;;;;4358289;33;20189;-65
2022/02/22 04:42:24;;;;;;;264.17;250.97;;;3.90;99.90;;;;;;4362158;33;20197;-65
2022/02/22 04:44:51;;;;;;;277.63;263.73;;;3.90;99.90;;;;;;4362027;33;20158;-65
2022/02/22 04:47:18;;;;;;;262.17;248.47;;;3.90;99.90;;;;;;4363113;32;20215;-65
2022/02/22 04:49:45;;;;;;;263.43;251.00;;;3.90;99.90;;;;;;4359228;33;20171;-65
2022/02/22 04:52:14;;;;;;;281.03;265.20;;;3.90;99.90;;;;;;4361970;32;20179;-65
2022/02/22 04:54:41;;;;;;;273.60;259.93;;;3.90;99.90;;;;;;4362045;33;20153;-65
2022/02/22 04:57:08;;;;;;;274.77;260.97;;;3.80;99.90;;;;;;4361809;33;20152;-64
2022/02/22 04:59:36;;;;;;;266.83;253.13;;;3.80;99.90;;;;;;4354731;32;20222;-65
2022/02/22 05:02:03;;;;;;;252.57;239.63;;;3.80;99.90;;;;;;4361171;33;20212;-65
2022/02/22 05:04:30;;;;;;;258.30;245.00;;;3.80;99.90;;;;;;4361591;32;20157;-65
2022/02/22 05:06:57;;;;;;;264.07;251.10;;;3.80;99.90;;;;;;4361665;33;20167;-65
2022/02/22 05:09:25;;;;;;;247.43;234.90;;;3.70;99.90;;;;;;4359497;32;20201;-64
2022/02/22 05:11:52;;;;;;;250.27;237.63;;;3.70;99.90;;;;;;4360982;33;20178;-65
2022/02/22 05:14:20;;;;;;;255.10;242.30;;;3.80;99.90;;;;;;4361511;33;20149;-65
2022/02/22 05:16:49;;;;;;;241.40;228.13;;;3.70;99.90;;;;;;4361574;33;20599;-64
2022/02/22 05:19:17;;;;;;;247.17;235.13;;;3.70;99.90;;;;;;4358057;32;20600;-65
2022/02/22 05:21:45;;;;;;;255.43;242.87;;;3.60;99.90;;;;;;4346452;33;20161;-65
2022/02/22 05:24:14;;;;;;;256.20;242.67;;;3.70;99.90;;;;;;4347035;33;20503;-65
2022/02/22 05:26:43;;;;;;;258.97;246.17;;;3.70;99.90;;;;;;4346558;33;20149;-65
2022/02/22 05:29:09;;;;;;;249.70;237.80;;;3.70;99.90;;;;;;4348807;33;20222;-65
2022/02/22 05:31:36;;;;;;;255.40;242.03;;;3.70;99.90;;;;;;4360420;32;20577;-65
2022/02/22 05:34:05;;;;;;;272.93;259.23;;;3.60;99.90;;;;;;4361352;33;20186;-65
2022/02/22 05:36:33;;;;;;;277.50;263.63;;;3.60;99.90;;;;;;4361363;33;20175;-64
2022/02/22 05:38:59;;;;;;;262.47;250.00;;;3.50;99.90;;;;;;4360762;32;20591;-65
2022/02/22 05:41:29;;;;;;;274.53;261.53;;;3.50;99.90;;;;;;4347757;33;20206;-65
2022/02/22 05:43:59;;;;;;;263.77;250.40;;;3.50;99.90;;;;;;4359721;32;20616;-65
2022/02/22 05:46:29;;;;;;;264.33;251.63;;;3.50;99.90;;;;;;4360589;33;20169;-65
2022/02/22 05:48:56;;;;;;;265.17;252.70;;;3.40;99.90;;;;;;4360154;32;20211;-65
2022/02/22 05:51:24;;;;;;;264.27;249.87;;;3.40;99.90;;;;;;4352000;33;20532;-65
2022/02/22 05:53:51;;;;;;;260.40;246.93;;;3.40;99.90;;;;;;4359858;32;20624;-65
2022/02/22 05:56:18;;;;;;;257.87;245.47;;;3.30;99.90;;;;;;4361303;32;20146;-65
2022/02/22 05:58:45;;;;;;;253.10;240.63;;;3.30;99.90;;;;;;4359558;32;20183;-65
2022/02/22 06:01:15;;;;;;;249.43;237.93;;;3.30;99.90;;;;;;4359036;32;20145;-65
2022/02/22 06:03:42;;;;;;;251.97;239.30;;;3.30;99.90;;;;;;4360964;33;20192;-65
2022/02/22 06:06:09;;;;;;;249.73;237.97;;;3.40;99.90;;;;;;4361132;33;20153;-65
2022/02/22 06:08:37;;;;;;;255.97;243.43;;;3.60;99.90;;;;;;4360360;33;20200;-65
2022/02/22 06:11:04;;;;;;;266.13;253.23;;;3.60;99.90;;;;;;4357696;32;20152;-64
2022/02/22 06:13:31;;;;;;;258.70;246.27;;;3.50;99.90;;;;;;4361545;32;20148;-64
2022/02/22 06:15:57;;;;;;;256.27;243.90;;;3.50;99.90;;;;;;4360495;32;20584;-65
2022/02/22 06:18:24;;;;;;;255.13;242.77;;;3.40;99.90;;;;;;4360391;33;20170;-64
2022/02/22 06:20:53;;;;;;;242.37;230.20;;;3.40;99.90;;;;;;4357004;32;20271;-64
2022/02/22 06:23:19;;;;;;;243.17;231.20;;;3.40;99.90;;;;;;4360846;33;20193;-65
2022/02/22 06:25:48;;;;;;;239.67;227.53;;;3.30;99.90;;;;;;4350318;33;20187;-64
2022/02/22 06:28:15;;;;;;;253.20;240.63;;;3.30;99.90;;;;;;4349384;33;20167;-64
2022/02/22 06:30:44;;;;;;;242.23;229.87;;;3.30;99.90;;;;;;4352138;32;20546;-64
2022/02/22 06:33:11;;;;;;;241.17;229.37;;;3.30;99.90;;;;;;4354531;32;20703;-64
2022/02/22 06:35:38;;;;;;;242.53;231.20;;;3.50;99.90;;;;;;4357249;32;20283;-64
2022/02/22 06:38:05;;;;;;;251.00;238.37;;;3.50;99.90;;;;;;4353035;33;20226;-64
2022/02/22 06:40:36;;;;;;;255.07;242.83;;;3.70;99.90;;;;;;4353553;33;20191;-64
2022/02/22 06:43:04;;;;;;;249.10;237.23;;;3.90;99.90;;;;;;4358376;33;20495;-64
2022/02/22 06:45:31;;;;;;;250.73;237.83;;;4.00;99.90;;;;;;4360168;32;20164;-65
2022/02/22 06:48:01;;;;;;;259.93;248.10;;;4.20;99.90;;;;;;4359352;33;20149;-64
2022/02/22 06:50:28;;;;;;;272.90;260.23;;;4.40;99.90;;;;;;4359110;33;20183;-63
2022/02/22 06:52:55;;;;;;;271.63;258.43;;;4.50;99.90;;;;;;4356201;33;20145;-64
2022/02/22 06:55:22;;;;;;;287.03;273.20;;;4.40;99.90;;;;;;4356715;33;20164;-64
2022/02/22 06:57:52;;;;;;;273.90;260.30;;;4.50;99.90;;;;;;4358899;33;20239;-64
2022/02/22 07:00:21;;;;;;;290.47;276.00;;;4.50;99.90;;;;;;4358755;33;20156;-64
2022/02/22 07:02:48;;;;;;;300.83;286.90;;;4.50;99.90;;;;;;4356515;33;20153;-64
2022/02/22 07:05:18;;;;;;;302.87;288.93;;;4.50;99.90;;;;;;4358442;33;20674;-61
2022/02/22 07:07:45;;;;;;;288.00;274.60;;;4.40;99.90;;;;;;4358405;33;20572;-64
2022/02/22 07:10:13;;;;;;;287.30;273.83;;;4.40;99.90;;;;;;4354132;33;20189;-64
2022/02/22 07:12:43;;;;;;;270.93;258.50;;;4.50;99.90;;;;;;4357811;33;20191;-64
2022/02/22 07:15:11;;;;;;;291.07;277.57;;;4.60;99.90;;;;;;4352483;32;20246;-64
2022/02/22 07:17:51;;;;;;;310.20;295.80;;;4.90;99.90;;;;;;4353669;33;20195;-64
2022/02/22 07:20:20;;;;;;;277.13;263.87;;;5.00;99.90;;;;;;4352056;33;20164;-64
2022/02/22 07:22:49;;;;;;;300.80;286.77;;;5.10;99.90;;;;;;4355492;33;20468;-65
2022/02/22 07:25:19;;;;;;;325.43;310.27;;;5.20;99.90;;;;;;4348395;32;20234;-64
2022/02/22 07:27:46;;;;;;;312.67;298.57;;;5.30;99.90;;;;;;4347944;32;20176;-65
2022/02/22 07:30:19;;;;;;;326.27;311.33;;;5.30;99.90;;;;;;4351391;33;20165;-61
2022/02/22 07:32:47;;;;;;;305.07;290.67;;;5.40;99.90;;;;;;4352980;32;20165;-61
2022/02/22 07:35:17;;;;;;;323.77;307.93;;;5.50;99.90;;;;;;4360932;33;20207;-62
2022/02/22 07:37:45;;;;;;;325.27;309.67;;;5.60;99.90;;;;;;4360248;32;20187;-64
2022/02/22 07:40:19;;;;;;;325.90;310.93;;;5.70;99.90;;;;;;4361087;33;20163;-62
2022/02/22 07:42:51;;;;;;;330.57;315.00;;;5.90;99.90;;;;;;4358745;32;20160;-64
2022/02/22 07:45:24;;;;;;;340.43;324.57;;;6.00;99.90;;;;;;4358407;33;20156;-62
2022/02/22 07:47:51;;;;;;;326.17;310.83;;;6.10;99.90;;;;;;4355857;32;20213;-64
2022/02/22 07:50:18;;;;;;;326.20;311.20;;;6.20;99.90;;;;;;4359738;32;20184;-62
2022/02/22 07:52:45;;;;;;;330.70;316.07;;;6.30;99.90;;;;;;4357596;33;20157;-63
2022/02/22 07:55:12;;;;;;;351.10;335.10;;;6.40;99.90;;;;;;4360750;33;20199;-65
2022/02/22 07:57:39;;;;;;;327.10;311.90;;;6.50;99.90;;;;;;4360525;33;20157;-63
2022/02/22 08:00:10;;;;;;;350.30;334.10;;;6.50;99.90;;;;;;4358275;33;20152;-62
2022/02/22 08:02:38;;;;;;;359.60;342.43;;;6.70;99.90;;;;;;4358923;33;20238;-62
2022/02/22 08:05:07;;;;;;;361.73;343.87;;;6.90;99.90;;;;;;4360510;32;20572;-62
2022/02/22 08:07:35;;;;;;;351.47;334.10;;;7.10;99.90;;;;;;4358168;32;20161;-63
2022/02/22 08:10:02;;;;;;;347.37;330.97;;;7.10;99.90;;;;;;4357432;32;20152;-63
2022/02/22 08:12:29;;;;;;;355.00;338.17;;;7.10;99.90;;;;;;4358929;32;20157;-63
2022/02/22 08:14:58;;;;;;;366.30;349.70;;;7.10;99.90;;;;;;4359256;33;20199;-63
2022/02/22 08:17:25;;;;;;;371.93;354.83;;;7.10;99.90;;;;;;4358639;32;20175;-63
2022/02/22 08:19:56;;;;;;;366.30;348.80;;;7.30;99.90;;;;;;4360719;33;20527;-63
2022/02/22 08:22:23;;;;;;;355.83;338.80;;;7.30;99.90;;;;;;4359400;33;20451;-64
2022/02/22 08:24:50;;;;;;;386.90;369.27;;;7.40;99.90;;;;;;4355489;32;20590;-63
2022/02/22 08:27:19;;;;;;;349.97;333.43;;;7.50;99.90;;;;;;4355227;33;20177;-63
2022/02/22 08:29:45;;;;;;;358.37;341.73;;;7.50;99.90;;;;;;4357723;32;20207;-63
2022/02/22 08:32:12;;;;;;;374.47;356.87;;;7.70;99.90;;;;;;4356442;32;20484;-63
2022/02/22 08:34:39;;;;;;;394.63;375.30;;;7.70;99.90;;;;;;4357547;33;20156;-63
2022/02/22 08:37:08;;;;;;;368.70;350.37;;;7.90;99.90;;;;;;4352923;32;20197;-63
2022/02/22 08:39:35;;;;;;;378.40;360.10;;;8.00;99.90;;;;;;4357817;32;20165;-63
2022/02/22 08:42:06;;;;;;;376.53;358.63;;;7.90;99.90;;;;;;4356760;32;20486;-62
2022/02/22 08:44:33;;;;;;;375.53;357.57;;;8.00;99.90;;;;;;4359048;32;20169;-63
2022/02/22 08:47:00;;;;;;;373.57;355.20;;;8.00;99.90;;;;;;4356563;33;20153;-64
2022/02/22 08:49:41;;;;;;;375.93;358.00;;;8.10;99.90;;;;;;4350098;32;20146;-63
2022/02/22 08:52:17;;;;;;;366.13;348.50;;;8.20;99.90;;;;;;4343749;33;20200;-64
2022/02/22 08:54:46;;;;;;;372.63;354.97;;;8.20;99.90;;;;;;4347044;32;20235;-64
2022/02/22 08:57:16;;;;;;;378.33;360.17;;;8.40;99.90;;;;;;4343642;32;20278;-63
2022/02/22 08:59:43;;;;;;;390.13;371.10;;;8.50;99.90;;;;;;4352727;33;20528;-64
2022/02/22 09:02:09;;;;;;;375.43;357.53;;;8.60;99.90;;;;;;4358802;32;20176;-64
2022/02/22 09:04:36;;;;;;;412.40;391.80;;;8.70;99.90;;;;;;4357142;32;20679;-64
2022/02/22 09:07:06;;;;;;;404.37;385.23;;;8.70;99.90;;;;;;4353429;32;20157;-64
2022/02/22 09:09:34;;;;;;;418.03;398.70;;;8.80;99.90;;;;;;4360247;33;20169;-64
2022/02/22 09:12:02;;;;;;;391.27;372.97;;;8.90;99.90;;;;;;4361252;32;20661;-63
2022/02/22 09:14:29;;;;;;;389.13;370.33;;;9.10;99.90;;;;;;4348879;33;20207;-63
2022/02/22 09:16:56;;;;;;;406.03;386.97;;;9.00;99.90;;;;;;4360581;32;20151;-63
2022/02/22 09:19:23;;;;;;;411.70;392.77;;;9.20;99.90;;;;;;4360617;33;20158;-64
2022/02/22 09:21:50;;;;;;;400.27;381.07;;;9.30;99.90;;;;;;4360020;33;20185;-63
2022/02/22 09:24:17;;;;;;;397.43;378.67;;;9.30;99.90;;;;;;4358773;32;20176;-64
2022/02/22 09:26:49;;;;;;;394.57;375.60;;;9.50;99.90;;;;;;4360206;33;20157;-63
2022/02/22 09:29:18;;;;;;;410.10;390.37;;;9.50;99.90;;;;;;4360542;33;20190;-64
2022/02/22 09:31:48;;;;;;;405.53;385.57;;;9.30;99.90;;;;;;4360583;33;20203;-63
2022/02/22 09:34:15;;;;;;;398.83;379.40;;;9.10;99.90;;;;;;4360154;32;20192;-64
2022/02/22 09:36:42;;;;;;;404.80;384.53;;;8.80;99.90;;;;;;4353822;33;20252;-64
2022/02/22 09:39:14;;;;;;;392.90;372.90;;;8.70;99.90;;;;;;4356862;32;20472;-64
2022/02/22 09:41:44;;;;;;;398.50;378.63;;;8.60;99.90;;;;;;4355690;32;20157;-64
2022/02/22 09:44:14;;;;;;;413.77;394.30;;;8.60;99.90;;;;;;4361816;32;20156;-64
2022/02/22 09:46:42;;;;;;;402.43;383.13;;;8.50;99.90;;;;;;4356143;33;20157;-64
2022/02/22 09:49:09;;;;;;;400.17;379.47;;;8.40;99.90;;;;;;4356955;32;20153;-64
2022/02/22 09:51:36;;;;;;;396.13;376.27;;;8.30;99.90;;;;;;4356392;32;20476;-65
2022/02/22 09:54:03;;;;;;;396.43;376.50;;;8.30;99.90;;;;;;4352266;32;20184;-64
2022/02/22 09:56:30;;;;;;;398.20;378.40;;;8.20;99.90;;;;;;4355112;32;20165;-64
2022/02/22 09:58:57;;;;;;;425.37;404.50;;;8.10;99.90;;;;;;4356443;32;20153;-63
2022/02/22 10:01:28;;;;;;;408.57;387.83;;;8.10;99.90;;;;;;4360132;32;20157;-64
2022/02/22 10:03:58;;;;;;;408.53;388.07;;;8.20;99.90;;;;;;4360771;33;20163;-64
2022/02/22 10:06:26;;;;;;;419.73;398.03;;;8.30;99.90;;;;;;4356449;33;20239;-64
2022/02/22 10:08:55;;;;;;;407.80;387.30;;;8.30;99.90;;;;;;4352338;33;20210;-63
2022/02/22 10:11:22;;;;;;;400.60;381.40;;;8.30;99.90;;;;;;4359459;33;20157;-63
2022/02/22 10:13:51;;;;;;;414.27;394.23;;;8.30;99.90;;;;;;4360146;33;20205;-63
2022/02/22 10:16:18;;;;;;;418.07;397.80;;;8.40;99.90;;;;;;4355327;32;20180;-64
2022/02/22 10:18:48;;;;;;;417.00;396.67;;;8.50;99.90;;;;;;4308956;32;1667654;-63
2022/02/22 10:21:15;;;;;;;402.10;382.37;;;8.50;99.90;;;;;;4360547;32;20180;-64
2022/02/22 10:23:42;;;;;;;408.83;388.40;;;8.70;99.90;;;;;;4360451;33;20183;-64
2022/02/22 10:26:20;;;;;;;418.40;397.50;;;8.60;99.90;;;;;;4357185;32;20630;-63
2022/02/22 10:28:47;;;;;;;395.83;377.13;;;8.70;99.90;;;;;;4361006;32;20198;-64
2022/02/22 10:38:01;;;;;;;365.70;348.23;;;9.10;99.90;;;;;;4354786;32;20188;-63
2022/02/22 10:40:30;;;;;;;388.13;369.17;;;9.20;99.90;;;;;;4353866;33;20164;-63
2022/02/22 10:42:57;;;;;;;397.40;377.73;;;9.10;99.90;;;;;;4358342;32;20157;-64
2022/02/22 10:45:24;;;;;;;405.77;385.67;;;9.20;99.90;;;;;;4359416;32;20195;-63
2022/02/22 10:47:51;;;;;;;403.03;383.23;;;9.20;99.90;;;;;;4357720;33;20176;-64
2022/02/22 10:50:25;;;;;;;419.23;399.13;;;8.90;99.90;;;;;;4358776;33;20161;-64
2022/02/22 10:52:53;;;;;;;413.90;393.73;;;8.50;99.90;;;;;;4360038;33;20157;-64
2022/02/22 10:55:23;;;;;;;392.30;372.47;;;8.40;99.90;;;;;;4359570;33;20188;-64
2022/02/22 10:57:53;;;;;;;406.47;386.17;;;8.10;99.90;;;;;;4353290;33;20171;-64
2022/02/22 11:00:21;;;;;;;408.63;388.53;;;8.00;99.90;;;;;;4357729;33;20175;-64
2022/02/22 11:02:50;;;;;;;424.60;402.73;;;7.80;99.90;;;;;;4356328;33;20164;-63
2022/02/22 11:05:17;;;;;;;401.63;382.00;;;7.80;99.90;;;;;;4353101;32;20153;-64
2022/02/22 11:07:51;;;;;;;415.80;395.23;;;7.60;99.90;;;;;;4359937;33;20569;-64
2022/02/22 11:10:21;;;;;;;417.13;395.70;;;7.70;99.90;;;;;;4361434;33;20145;-64
2022/02/22 11:12:55;;;;;;;436.67;415.77;;;7.70;99.90;;;;;;4363627;32;20200;-64
2022/02/22 11:15:34;;;;;;;399.07;378.80;;;7.80;99.90;;;;;;4361351;33;20173;-64
2022/02/22 11:18:15;;;;;;;419.20;397.27;;;7.80;99.90;;;;;;4355507;33;20180;-64
2022/02/22 11:20:45;;;;;;;402.23;382.20;;;7.70;99.90;;;;;;4361187;32;20183;-63
2022/02/22 11:23:15;;;;;;;406.23;386.07;;;7.70;99.90;;;;;;4361709;33;20170;-64
2022/02/22 11:25:46;;;;;;;398.57;378.50;;;7.80;99.90;;;;;;4351079;33;20162;-63
2022/02/22 11:28:13;;;;;;;419.40;398.70;;;7.70;99.90;;;;;;4360913;33;20157;-63
2022/02/22 11:30:43;;;;;;;420.53;399.53;;;7.80;99.90;;;;;;4354242;32;20197;-64
2022/02/22 11:33:20;;;;;;;440.07;417.63;;;8.00;99.90;;;;;;4361254;33;20227;-64
2022/02/22 11:35:50;;;;;;;423.83;402.63;;;8.00;99.90;;;;;;4351256;33;20287;-64
2022/02/22 11:38:18;;;;;;;445.10;423.40;;;7.90;99.90;;;;;;4356414;32;20161;-64
2022/02/22 11:40:49;;;;;;;423.10;401.83;;;7.90;99.90;;;;;;4349420;33;20149;-64
2022/02/22 11:43:18;;;;;;;426.07;404.40;;;7.90;99.90;;;;;;4361453;33;20152;-63
2022/02/22 11:45:46;;;;;;;432.37;410.47;;;8.00;99.90;;;;;;4360176;32;20175;-64
2022/02/22 11:48:21;;;;;;;424.63;404.00;;;8.00;99.90;;;;;;4358646;33;20190;-64
2022/02/22 11:50:49;;;;;;;423.03;400.80;;;8.20;99.90;;;;;;4363140;32;20165;-64
2022/02/22 11:53:22;;;;;;;448.13;424.60;;;8.20;99.90;;;;;;4350077;33;20253;-64
2022/02/22 11:55:51;;;;;;;450.43;428.07;;;8.30;99.90;;;;;;4359026;33;20174;-64
2022/02/22 11:58:22;;;;;;;446.83;423.87;;;8.40;99.90;;;;;;4350116;32;20162;-64
2022/02/22 12:00:55;;;;;;;449.73;426.10;;;8.50;99.90;;;;;;4347764;33;20312;-64
2022/02/22 12:03:24;;;;;;;464.17;440.83;;;8.70;99.90;;;;;;4360651;33;20208;-64
2022/02/22 12:05:57;;;;;;;444.90;422.40;;;8.60;99.90;;;;;;4358696;32;20167;-64
2022/02/22 12:08:25;;;;;;;455.17;431.50;;;8.60;99.90;;;;;;4351131;33;20187;-64
2022/02/22 12:10:55;;;;;;;475.73;451.70;;;8.60;99.90;;;;;;4349097;33;20187;-64
2022/02/22 12:13:24;;;;;;;473.80;448.73;;;8.70;99.90;;;;;;4348110;33;20183;-64
2022/02/22 12:15:54;;;;;;;476.40;451.50;;;8.80;99.90;;;;;;4354860;33;20285;-64
2022/02/22 12:18:27;;;;;;;492.33;466.07;;;8.80;99.90;;;;;;4351219;33;20178;-64
2022/02/22 12:20:55;;;;;;;474.47;449.10;;;8.80;99.90;;;;;;4353384;32;20213;-64
2022/02/22 12:23:24;;;;;;;475.67;450.60;;;8.80;99.90;;;;;;4355810;33;20159;-64
2022/02/22 12:25:53;;;;;;;472.37;448.70;;;8.80;99.90;;;;;;4356961;32;20185;-65
2022/02/22 12:28:23;;;;;;;485.07;460.33;;;8.90;99.90;;;;;;4355523;33;20201;-65
2022/02/22 12:30:51;;;;;;;476.97;451.97;;;8.90;99.90;;;;;;4354335;32;20595;-65